sensor_id;sensor_type;location;lat;lon;timestamp;P1;durP1;ratioP1;P2;durP2;ratioP2
53751;SDS011;41095;53.090;6.692;2023-07-20T00:00:48;2.80;;;2.60;;
53751;SDS011;41095;53.090;6.692;2023-07-20T00:03:18;3.00;;;2.70;;
53751;SDS011;41095;53.090;6.692;2023-07-20T00:05:48;1.88;;;1.77;;
53751;SDS011;41095;53.090;6.692;2023-07-20T00:08:14;1.83;;;1.70;;
53751;SDS011;41095;53.090;6.692;2023-07-20T00:10:41;1.70;;;1.60;;
53751;SDS011;41095;53.090;6.692;2023-07-20T00:13:07;2.85;;;2.10;;
53751;SDS011;41095;53.090;6.692;2023-07-20T00:15:33;2.08;;;1.98;;
53751;SDS011;41095;53.090;6.692;2023-07-20T00:17:59;3.90;;;1.90;;
53751;SDS011;41095;53.090;6.692;2023-07-20T00:20:24;2.20;;;2.00;;
53751;SDS011;41095;53.090;6.692;2023-07-20T00:22:51;1.98;;;1.77;;
53751;SDS011;41095;53.090;6.692;2023-07-20T00:25:17;1.70;;;1.60;;
53751;SDS011;41095;53.090;6.692;2023-07-20T00:27:43;2.75;;;1.70;;
53751;SDS011;41095;53.090;6.692;2023-07-20T00:30:09;2.22;;;1.90;;
53751;SDS011;41095;53.090;6.692;2023-07-20T00:32:36;2.08;;;1.60;;
53751;SDS011;41095;53.090;6.692;2023-07-20T00:35:01;1.55;;;1.40;;
53751;SDS011;41095;53.090;6.692;2023-07-20T00:37:27;1.73;;;1.60;;
53751;SDS011;41095;53.090;6.692;2023-07-20T00:39:54;1.83;;;1.15;;
53751;SDS011;41095;53.090;6.692;2023-07-20T00:42:20;1.58;;;1.48;;
53751;SDS011;41095;53.090;6.692;2023-07-20T00:44:45;1.10;;;1.10;;
53751;SDS011;41095;53.090;6.692;2023-07-20T00:47:11;4.63;;;1.83;;
53751;SDS011;41095;53.090;6.692;2023-07-20T00:49:37;2.25;;;1.65;;
53751;SDS011;41095;53.090;6.692;2023-07-20T00:52:03;3.42;;;2.17;;
53751;SDS011;41095;53.090;6.692;2023-07-20T00:54:32;1.45;;;1.35;;
53751;SDS011;41095;53.090;6.692;2023-07-20T00:56:58;1.45;;;1.20;;
53751;SDS011;41095;53.090;6.692;2023-07-20T00:59:26;1.50;;;1.40;;
53751;SDS011;41095;53.090;6.692;2023-07-20T01:01:52;1.83;;;1.65;;
53751;SDS011;41095;53.090;6.692;2023-07-20T01:04:18;1.83;;;1.73;;
53751;SDS011;41095;53.090;6.692;2023-07-20T01:06:46;1.90;;;1.80;;
53751;SDS011;41095;53.090;6.692;2023-07-20T01:09:18;1.50;;;1.47;;
53751;SDS011;41095;53.090;6.692;2023-07-20T01:14:27;2.33;;;2.13;;
53751;SDS011;41095;53.090;6.692;2023-07-20T01:16:53;2.47;;;1.77;;
53751;SDS011;41095;53.090;6.692;2023-07-20T01:19:19;2.20;;;2.00;;
53751;SDS011;41095;53.090;6.692;2023-07-20T01:21:47;2.58;;;2.38;;
53751;SDS011;41095;53.090;6.692;2023-07-20T01:32:33;3.03;;;2.83;;
53751;SDS011;41095;53.090;6.692;2023-07-20T01:35:00;2.60;;;2.40;;
53751;SDS011;41095;53.090;6.692;2023-07-20T01:37:29;3.20;;;3.00;;
53751;SDS011;41095;53.090;6.692;2023-07-20T01:39:56;3.20;;;2.90;;
53751;SDS011;41095;53.090;6.692;2023-07-20T01:42:23;3.25;;;2.50;;
53751;SDS011;41095;53.090;6.692;2023-07-20T01:44:53;3.10;;;2.80;;
53751;SDS011;41095;53.090;6.692;2023-07-20T01:47:18;2.60;;;2.40;;
53751;SDS011;41095;53.090;6.692;2023-07-20T01:49:44;2.88;;;2.30;;
53751;SDS011;41095;53.090;6.692;2023-07-20T01:52:10;4.35;;;2.42;;
53751;SDS011;41095;53.090;6.692;2023-07-20T01:54:36;3.13;;;2.70;;
53751;SDS011;41095;53.090;6.692;2023-07-20T01:57:02;3.50;;;2.58;;
53751;SDS011;41095;53.090;6.692;2023-07-20T01:59:27;3.67;;;3.08;;
53751;SDS011;41095;53.090;6.692;2023-07-20T02:01:53;2.83;;;2.63;;
53751;SDS011;41095;53.090;6.692;2023-07-20T02:04:19;4.15;;;3.75;;
53751;SDS011;41095;53.090;6.692;2023-07-20T02:06:44;3.42;;;3.13;;
53751;SDS011;41095;53.090;6.692;2023-07-20T02:09:10;3.08;;;2.78;;
53751;SDS011;41095;53.090;6.692;2023-07-20T02:11:36;4.55;;;3.17;;
53751;SDS011;41095;53.090;6.692;2023-07-20T02:14:01;3.28;;;2.97;;
53751;SDS011;41095;53.090;6.692;2023-07-20T02:16:27;3.60;;;3.30;;
53751;SDS011;41095;53.090;6.692;2023-07-20T02:18:53;4.15;;;3.83;;
53751;SDS011;41095;53.090;6.692;2023-07-20T02:21:22;3.20;;;3.00;;
53751;SDS011;41095;53.090;6.692;2023-07-20T02:23:48;3.00;;;2.80;;
53751;SDS011;41095;53.090;6.692;2023-07-20T02:26:13;4.20;;;3.80;;
53751;SDS011;41095;53.090;6.692;2023-07-20T02:28:40;3.85;;;3.40;;
53751;SDS011;41095;53.090;6.692;2023-07-20T02:31:06;3.88;;;3.50;;
53751;SDS011;41095;53.090;6.692;2023-07-20T02:33:32;2.70;;;2.35;;
53751;SDS011;41095;53.090;6.692;2023-07-20T02:35:58;4.97;;;3.97;;
53751;SDS011;41095;53.090;6.692;2023-07-20T02:38:24;4.18;;;3.78;;
53751;SDS011;41095;53.090;6.692;2023-07-20T02:40:49;3.08;;;2.78;;
53751;SDS011;41095;53.090;6.692;2023-07-20T02:43:15;3.85;;;3.45;;
53751;SDS011;41095;53.090;6.692;2023-07-20T02:45:41;3.38;;;3.13;;
53751;SDS011;41095;53.090;6.692;2023-07-20T02:48:07;4.10;;;3.80;;
53751;SDS011;41095;53.090;6.692;2023-07-20T02:50:33;4.03;;;3.67;;
53751;SDS011;41095;53.090;6.692;2023-07-20T02:53:00;2.92;;;2.72;;
53751;SDS011;41095;53.090;6.692;2023-07-20T02:55:26;5.90;;;4.20;;
53751;SDS011;41095;53.090;6.692;2023-07-20T02:57:52;4.28;;;3.80;;
53751;SDS011;41095;53.090;6.692;2023-07-20T03:00:17;4.10;;;3.63;;
53751;SDS011;41095;53.090;6.692;2023-07-20T03:02:44;3.50;;;3.25;;
53751;SDS011;41095;53.090;6.692;2023-07-20T03:05:13;4.28;;;3.97;;
53751;SDS011;41095;53.090;6.692;2023-07-20T03:07:39;8.25;;;4.15;;
53751;SDS011;41095;53.090;6.692;2023-07-20T03:10:05;3.88;;;3.58;;
53751;SDS011;41095;53.090;6.692;2023-07-20T03:12:34;5.00;;;3.95;;
53751;SDS011;41095;53.090;6.692;2023-07-20T03:15:01;4.38;;;3.97;;
53751;SDS011;41095;53.090;6.692;2023-07-20T03:17:27;3.90;;;3.50;;
53751;SDS011;41095;53.090;6.692;2023-07-20T03:19:53;3.42;;;3.13;;
53751;SDS011;41095;53.090;6.692;2023-07-20T03:22:19;3.05;;;2.75;;
53751;SDS011;41095;53.090;6.692;2023-07-20T03:24:46;3.78;;;3.47;;
53751;SDS011;41095;53.090;6.692;2023-07-20T03:27:12;3.60;;;3.15;;
53751;SDS011;41095;53.090;6.692;2023-07-20T03:29:38;3.47;;;3.17;;
53751;SDS011;41095;53.090;6.692;2023-07-20T03:32:04;3.63;;;3.33;;
53751;SDS011;41095;53.090;6.692;2023-07-20T03:34:30;4.10;;;3.38;;
53751;SDS011;41095;53.090;6.692;2023-07-20T03:36:56;3.70;;;3.40;;
53751;SDS011;41095;53.090;6.692;2023-07-20T03:39:22;4.03;;;3.63;;
53751;SDS011;41095;53.090;6.692;2023-07-20T03:41:47;4.05;;;3.72;;
53751;SDS011;41095;53.090;6.692;2023-07-20T03:44:13;5.00;;;4.50;;
53751;SDS011;41095;53.090;6.692;2023-07-20T03:46:39;3.80;;;3.40;;
53751;SDS011;41095;53.090;6.692;2023-07-20T03:49:04;3.33;;;2.97;;
53751;SDS011;41095;53.090;6.692;2023-07-20T03:51:31;3.80;;;3.30;;
53751;SDS011;41095;53.090;6.692;2023-07-20T03:53:57;4.05;;;3.40;;
53751;SDS011;41095;53.090;6.692;2023-07-20T03:56:23;3.65;;;3.33;;
53751;SDS011;41095;53.090;6.692;2023-07-20T03:58:49;3.30;;;3.00;;
53751;SDS011;41095;53.090;6.692;2023-07-20T04:01:15;3.10;;;2.80;;
53751;SDS011;41095;53.090;6.692;2023-07-20T04:03:42;2.83;;;2.63;;
53751;SDS011;41095;53.090;6.692;2023-07-20T04:06:08;3.10;;;2.70;;
53751;SDS011;41095;53.090;6.692;2023-07-20T04:08:34;3.55;;;3.25;;
53751;SDS011;41095;53.090;6.692;2023-07-20T04:11:01;4.20;;;3.00;;
53751;SDS011;41095;53.090;6.692;2023-07-20T04:13:27;3.25;;;2.97;;
53751;SDS011;41095;53.090;6.692;2023-07-20T04:15:53;3.15;;;2.95;;
53751;SDS011;41095;53.090;6.692;2023-07-20T04:18:19;2.90;;;2.38;;
53751;SDS011;41095;53.090;6.692;2023-07-20T04:20:45;3.72;;;3.35;;
53751;SDS011;41095;53.090;6.692;2023-07-20T04:23:10;2.33;;;2.13;;
53751;SDS011;41095;53.090;6.692;2023-07-20T04:25:38;3.25;;;2.85;;
53751;SDS011;41095;53.090;6.692;2023-07-20T04:28:06;2.72;;;2.53;;
53751;SDS011;41095;53.090;6.692;2023-07-20T04:30:35;2.58;;;2.33;;
53751;SDS011;41095;53.090;6.692;2023-07-20T04:33:02;2.80;;;2.22;;
53751;SDS011;41095;53.090;6.692;2023-07-20T04:35:44;2.92;;;2.58;;
53751;SDS011;41095;53.090;6.692;2023-07-20T04:38:14;2.28;;;2.08;;
53751;SDS011;41095;53.090;6.692;2023-07-20T04:40:42;2.83;;;2.30;;
53751;SDS011;41095;53.090;6.692;2023-07-20T04:43:13;2.88;;;2.33;;
53751;SDS011;41095;53.090;6.692;2023-07-20T04:45:39;2.50;;;2.20;;
53751;SDS011;41095;53.090;6.692;2023-07-20T04:48:06;2.45;;;2.13;;
53751;SDS011;41095;53.090;6.692;2023-07-20T04:50:35;2.55;;;2.35;;
53751;SDS011;41095;53.090;6.692;2023-07-20T04:53:01;4.10;;;2.42;;
53751;SDS011;41095;53.090;6.692;2023-07-20T04:55:27;4.25;;;2.58;;
53751;SDS011;41095;53.090;6.692;2023-07-20T04:57:53;3.63;;;2.70;;
53751;SDS011;41095;53.090;6.692;2023-07-20T05:00:19;2.55;;;2.35;;
53751;SDS011;41095;53.090;6.692;2023-07-20T05:02:46;2.85;;;2.65;;
53751;SDS011;41095;53.090;6.692;2023-07-20T05:05:14;3.60;;;2.80;;
53751;SDS011;41095;53.090;6.692;2023-07-20T05:07:40;3.25;;;2.95;;
53751;SDS011;41095;53.090;6.692;2023-07-20T05:10:06;5.53;;;2.90;;
53751;SDS011;41095;53.090;6.692;2023-07-20T05:12:32;3.08;;;2.35;;
53751;SDS011;41095;53.090;6.692;2023-07-20T05:14:58;2.53;;;2.20;;
53751;SDS011;41095;53.090;6.692;2023-07-20T05:17:23;2.47;;;2.08;;
53751;SDS011;41095;53.090;6.692;2023-07-20T05:19:50;3.50;;;3.20;;
53751;SDS011;41095;53.090;6.692;2023-07-20T05:22:16;6.28;;;2.90;;
53751;SDS011;41095;53.090;6.692;2023-07-20T05:24:42;2.65;;;2.45;;
53751;SDS011;41095;53.090;6.692;2023-07-20T05:27:08;2.70;;;2.13;;
53751;SDS011;41095;53.090;6.692;2023-07-20T05:29:33;1.77;;;1.67;;
53751;SDS011;41095;53.090;6.692;2023-07-20T05:31:59;2.45;;;2.15;;
53751;SDS011;41095;53.090;6.692;2023-07-20T05:34:25;2.70;;;2.22;;
53751;SDS011;41095;53.090;6.692;2023-07-20T05:36:50;3.47;;;2.13;;
53751;SDS011;41095;53.090;6.692;2023-07-20T05:39:17;2.35;;;2.15;;
53751;SDS011;41095;53.090;6.692;2023-07-20T05:41:43;4.03;;;2.08;;
53751;SDS011;41095;53.090;6.692;2023-07-20T05:44:08;3.67;;;1.98;;
53751;SDS011;41095;53.090;6.692;2023-07-20T05:46:34;4.30;;;2.28;;
53751;SDS011;41095;53.090;6.692;2023-07-20T05:49:00;2.35;;;1.85;;
53751;SDS011;41095;53.090;6.692;2023-07-20T05:51:26;6.40;;;2.25;;
53751;SDS011;41095;53.090;6.692;2023-07-20T05:53:52;1.92;;;1.75;;
53751;SDS011;41095;53.090;6.692;2023-07-20T05:56:18;3.22;;;2.25;;
53751;SDS011;41095;53.090;6.692;2023-07-20T05:58:44;2.20;;;1.92;;
53751;SDS011;41095;53.090;6.692;2023-07-20T06:01:09;4.72;;;2.10;;
53751;SDS011;41095;53.090;6.692;2023-07-20T06:03:35;2.00;;;1.80;;
53751;SDS011;41095;53.090;6.692;2023-07-20T06:06:02;2.60;;;2.13;;
53751;SDS011;41095;53.090;6.692;2023-07-20T06:08:32;2.60;;;1.77;;
53751;SDS011;41095;53.090;6.692;2023-07-20T06:10:58;3.90;;;1.80;;
53751;SDS011;41095;53.090;6.692;2023-07-20T06:13:23;2.95;;;1.70;;
53751;SDS011;41095;53.090;6.692;2023-07-20T06:15:50;2.25;;;2.05;;
53751;SDS011;41095;53.090;6.692;2023-07-20T06:18:16;4.63;;;1.40;;
53751;SDS011;41095;53.090;6.692;2023-07-20T06:20:41;2.47;;;1.90;;
53751;SDS011;41095;53.090;6.692;2023-07-20T06:23:07;2.13;;;1.58;;
53751;SDS011;41095;53.090;6.692;2023-07-20T06:25:33;3.35;;;1.77;;
53751;SDS011;41095;53.090;6.692;2023-07-20T06:27:58;1.40;;;1.30;;
53751;SDS011;41095;53.090;6.692;2023-07-20T06:30:24;3.50;;;1.55;;
53751;SDS011;41095;53.090;6.692;2023-07-20T06:32:50;2.88;;;1.60;;
53751;SDS011;41095;53.090;6.692;2023-07-20T06:35:16;1.85;;;1.30;;
53751;SDS011;41095;53.090;6.692;2023-07-20T06:37:42;2.80;;;1.50;;
53751;SDS011;41095;53.090;6.692;2023-07-20T06:40:08;3.30;;;1.30;;
53751;SDS011;41095;53.090;6.692;2023-07-20T06:42:34;2.13;;;1.10;;
53751;SDS011;41095;53.090;6.692;2023-07-20T06:45:00;1.63;;;1.30;;
53751;SDS011;41095;53.090;6.692;2023-07-20T06:47:26;1.67;;;1.13;;
53751;SDS011;41095;53.090;6.692;2023-07-20T06:49:51;2.30;;;1.27;;
53751;SDS011;41095;53.090;6.692;2023-07-20T06:52:17;1.30;;;1.20;;
53751;SDS011;41095;53.090;6.692;2023-07-20T06:54:43;1.30;;;1.10;;
53751;SDS011;41095;53.090;6.692;2023-07-20T06:57:09;1.20;;;0.80;;
53751;SDS011;41095;53.090;6.692;2023-07-20T06:59:34;1.23;;;0.60;;
53751;SDS011;41095;53.090;6.692;2023-07-20T07:02:00;1.63;;;0.80;;
53751;SDS011;41095;53.090;6.692;2023-07-20T07:04:26;2.67;;;1.27;;
53751;SDS011;41095;53.090;6.692;2023-07-20T07:06:52;1.35;;;0.90;;
53751;SDS011;41095;53.090;6.692;2023-07-20T07:09:18;2.53;;;0.98;;
53751;SDS011;41095;53.090;6.692;2023-07-20T07:11:43;1.10;;;0.82;;
53751;SDS011;41095;53.090;6.692;2023-07-20T07:14:09;2.30;;;1.63;;
53751;SDS011;41095;53.090;6.692;2023-07-20T07:16:37;2.88;;;1.17;;
53751;SDS011;41095;53.090;6.692;2023-07-20T07:19:02;1.88;;;0.90;;
53751;SDS011;41095;53.090;6.692;2023-07-20T07:21:28;1.63;;;0.80;;
53751;SDS011;41095;53.090;6.692;2023-07-20T07:23:54;1.10;;;0.80;;
53751;SDS011;41095;53.090;6.692;2023-07-20T07:26:22;1.20;;;0.88;;
53751;SDS011;41095;53.090;6.692;2023-07-20T07:28:49;1.45;;;1.35;;
53751;SDS011;41095;53.090;6.692;2023-07-20T07:31:14;1.88;;;1.10;;
53751;SDS011;41095;53.090;6.692;2023-07-20T07:33:40;1.80;;;1.00;;
53751;SDS011;41095;53.090;6.692;2023-07-20T07:36:06;2.40;;;1.00;;
53751;SDS011;41095;53.090;6.692;2023-07-20T07:38:33;3.47;;;1.13;;
53751;SDS011;41095;53.090;6.692;2023-07-20T07:40:59;2.35;;;1.35;;
53751;SDS011;41095;53.090;6.692;2023-07-20T07:43:24;4.50;;;1.30;;
53751;SDS011;41095;53.090;6.692;2023-07-20T07:45:53;2.60;;;1.27;;
53751;SDS011;41095;53.090;6.692;2023-07-20T07:48:19;2.17;;;1.10;;
53751;SDS011;41095;53.090;6.692;2023-07-20T07:50:46;1.73;;;1.20;;
53751;SDS011;41095;53.090;6.692;2023-07-20T07:53:12;2.53;;;1.20;;
53751;SDS011;41095;53.090;6.692;2023-07-20T07:55:37;2.08;;;1.30;;
53751;SDS011;41095;53.090;6.692;2023-07-20T07:58:03;1.95;;;1.30;;
53751;SDS011;41095;53.090;6.692;2023-07-20T08:00:29;3.25;;;1.13;;
53751;SDS011;41095;53.090;6.692;2023-07-20T08:02:55;4.75;;;1.08;;
53751;SDS011;41095;53.090;6.692;2023-07-20T08:05:20;2.58;;;1.50;;
53751;SDS011;41095;53.090;6.692;2023-07-20T08:07:46;2.38;;;1.63;;
53751;SDS011;41095;53.090;6.692;2023-07-20T08:10:12;2.85;;;1.45;;
53751;SDS011;41095;53.090;6.692;2023-07-20T08:12:37;2.13;;;1.05;;
53751;SDS011;41095;53.090;6.692;2023-07-20T08:15:03;4.22;;;1.20;;
53751;SDS011;41095;53.090;6.692;2023-07-20T08:17:29;1.25;;;1.10;;
53751;SDS011;41095;53.090;6.692;2023-07-20T08:19:55;2.55;;;1.48;;
53751;SDS011;41095;53.090;6.692;2023-07-20T08:22:21;1.70;;;1.00;;
53751;SDS011;41095;53.090;6.692;2023-07-20T08:24:46;1.85;;;1.42;;
53751;SDS011;41095;53.090;6.692;2023-07-20T08:27:12;2.13;;;1.17;;
53751;SDS011;41095;53.090;6.692;2023-07-20T08:29:38;6.20;;;1.73;;
53751;SDS011;41095;53.090;6.692;2023-07-20T08:32:04;4.07;;;2.00;;
53751;SDS011;41095;53.090;6.692;2023-07-20T08:34:31;2.55;;;1.70;;
53751;SDS011;41095;53.090;6.692;2023-07-20T08:36:57;2.78;;;1.88;;
53751;SDS011;41095;53.090;6.692;2023-07-20T08:39:23;2.35;;;1.48;;
53751;SDS011;41095;53.090;6.692;2023-07-20T08:41:49;3.15;;;1.60;;
53751;SDS011;41095;53.090;6.692;2023-07-20T08:44:16;1.85;;;1.48;;
53751;SDS011;41095;53.090;6.692;2023-07-20T08:46:42;2.80;;;1.80;;
53751;SDS011;41095;53.090;6.692;2023-07-20T08:49:10;2.60;;;1.33;;
53751;SDS011;41095;53.090;6.692;2023-07-20T08:51:36;2.35;;;1.45;;
53751;SDS011;41095;53.090;6.692;2023-07-20T08:54:03;2.13;;;1.30;;
53751;SDS011;41095;53.090;6.692;2023-07-20T08:56:29;2.22;;;1.27;;
53751;SDS011;41095;53.090;6.692;2023-07-20T08:58:58;5.43;;;1.20;;
53751;SDS011;41095;53.090;6.692;2023-07-20T09:01:26;3.63;;;1.45;;
53751;SDS011;41095;53.090;6.692;2023-07-20T09:03:53;3.47;;;1.70;;
53751;SDS011;41095;53.090;6.692;2023-07-20T09:06:18;2.10;;;1.50;;
53751;SDS011;41095;53.090;6.692;2023-07-20T09:08:44;2.75;;;1.50;;
53751;SDS011;41095;53.090;6.692;2023-07-20T09:11:10;4.15;;;2.13;;
53751;SDS011;41095;53.090;6.692;2023-07-20T09:13:38;2.67;;;1.50;;
53751;SDS011;41095;53.090;6.692;2023-07-20T09:16:04;4.40;;;1.85;;
53751;SDS011;41095;53.090;6.692;2023-07-20T09:18:33;1.35;;;1.10;;
53751;SDS011;41095;53.090;6.692;2023-07-20T09:21:02;2.90;;;1.23;;
53751;SDS011;41095;53.090;6.692;2023-07-20T09:23:34;1.30;;;1.20;;
53751;SDS011;41095;53.090;6.692;2023-07-20T09:26:09;5.07;;;1.73;;
53751;SDS011;41095;53.090;6.692;2023-07-20T09:28:49;3.85;;;1.17;;
53751;SDS011;41095;53.090;6.692;2023-07-20T09:31:17;5.20;;;2.65;;
53751;SDS011;41095;53.090;6.692;2023-07-20T09:33:44;3.17;;;1.15;;
53751;SDS011;41095;53.090;6.692;2023-07-20T09:36:10;3.85;;;1.30;;
53751;SDS011;41095;53.090;6.692;2023-07-20T09:38:41;1.88;;;0.95;;
53751;SDS011;41095;53.090;6.692;2023-07-20T09:41:14;3.22;;;1.10;;
53751;SDS011;41095;53.090;6.692;2023-07-20T09:43:40;2.67;;;0.90;;
53751;SDS011;41095;53.090;6.692;2023-07-20T09:46:07;1.05;;;0.88;;
53751;SDS011;41095;53.090;6.692;2023-07-20T09:48:33;1.48;;;0.80;;
53751;SDS011;41095;53.090;6.692;2023-07-20T09:50:59;1.98;;;1.17;;
53751;SDS011;41095;53.090;6.692;2023-07-20T09:53:26;2.20;;;0.95;;
53751;SDS011;41095;53.090;6.692;2023-07-20T09:55:52;0.98;;;0.80;;
53751;SDS011;41095;53.090;6.692;2023-07-20T09:58:19;1.05;;;0.90;;
53751;SDS011;41095;53.090;6.692;2023-07-20T10:00:45;1.58;;;1.05;;
53751;SDS011;41095;53.090;6.692;2023-07-20T10:03:19;3.10;;;0.90;;
53751;SDS011;41095;53.090;6.692;2023-07-20T10:05:48;1.60;;;1.00;;
53751;SDS011;41095;53.090;6.692;2023-07-20T10:08:27;2.40;;;1.25;;
53751;SDS011;41095;53.090;6.692;2023-07-20T10:10:56;1.73;;;0.80;;
53751;SDS011;41095;53.090;6.692;2023-07-20T10:13:27;2.05;;;0.95;;
53751;SDS011;41095;53.090;6.692;2023-07-20T10:16:06;1.15;;;0.90;;
53751;SDS011;41095;53.090;6.692;2023-07-20T10:18:44;0.82;;;0.75;;
53751;SDS011;41095;53.090;6.692;2023-07-20T10:21:17;0.80;;;0.80;;
53751;SDS011;41095;53.090;6.692;2023-07-20T10:23:44;0.90;;;0.90;;
53751;SDS011;41095;53.090;6.692;2023-07-20T10:26:11;1.45;;;0.90;;
53751;SDS011;41095;53.090;6.692;2023-07-20T10:28:38;5.80;;;1.40;;
53751;SDS011;41095;53.090;6.692;2023-07-20T10:31:05;1.77;;;1.10;;
53751;SDS011;41095;53.090;6.692;2023-07-20T10:33:37;5.68;;;0.98;;
53751;SDS011;41095;53.090;6.692;2023-07-20T10:36:04;3.22;;;1.00;;
53751;SDS011;41095;53.090;6.692;2023-07-20T10:41:18;1.17;;;0.80;;
53751;SDS011;41095;53.090;6.692;2023-07-20T10:43:45;1.42;;;0.80;;
53751;SDS011;41095;53.090;6.692;2023-07-20T10:46:12;2.25;;;1.25;;
53751;SDS011;41095;53.090;6.692;2023-07-20T10:51:28;2.47;;;0.77;;
53751;SDS011;41095;53.090;6.692;2023-07-20T10:53:57;1.40;;;1.00;;
53751;SDS011;41095;53.090;6.692;2023-07-20T10:56:26;0.75;;;0.63;;
53751;SDS011;41095;53.090;6.692;2023-07-20T10:58:59;1.02;;;0.80;;
53751;SDS011;41095;53.090;6.692;2023-07-20T11:01:29;2.08;;;0.88;;
53751;SDS011;41095;53.090;6.692;2023-07-20T11:03:58;2.25;;;0.98;;
53751;SDS011;41095;53.090;6.692;2023-07-20T11:08:57;1.80;;;0.90;;
53751;SDS011;41095;53.090;6.692;2023-07-20T11:11:40;3.05;;;1.10;;
53751;SDS011;41095;53.090;6.692;2023-07-20T11:16:48;2.25;;;0.77;;
53751;SDS011;41095;53.090;6.692;2023-07-20T11:21:51;1.63;;;1.15;;
53751;SDS011;41095;53.090;6.692;2023-07-20T11:24:18;0.85;;;0.85;;
53751;SDS011;41095;53.090;6.692;2023-07-20T11:29:18;1.38;;;0.80;;
53751;SDS011;41095;53.090;6.692;2023-07-20T11:31:50;2.17;;;0.90;;
53751;SDS011;41095;53.090;6.692;2023-07-20T11:34:17;3.45;;;1.50;;
53751;SDS011;41095;53.090;6.692;2023-07-20T11:36:45;3.90;;;1.30;;
53751;SDS011;41095;53.090;6.692;2023-07-20T11:39:14;2.78;;;1.25;;
53751;SDS011;41095;53.090;6.692;2023-07-20T11:41:51;1.20;;;1.02;;
53751;SDS011;41095;53.090;6.692;2023-07-20T11:44:18;2.80;;;1.10;;
53751;SDS011;41095;53.090;6.692;2023-07-20T11:46:59;0.70;;;0.70;;
53751;SDS011;41095;53.090;6.692;2023-07-20T11:49:43;1.83;;;1.17;;
53751;SDS011;41095;53.090;6.692;2023-07-20T11:52:15;4.15;;;0.90;;
53751;SDS011;41095;53.090;6.692;2023-07-20T11:54:42;2.03;;;1.20;;
53751;SDS011;41095;53.090;6.692;2023-07-20T11:57:15;1.42;;;0.80;;
53751;SDS011;41095;53.090;6.692;2023-07-20T12:02:25;1.25;;;1.10;;
53751;SDS011;41095;53.090;6.692;2023-07-20T12:04:54;1.38;;;1.10;;
53751;SDS011;41095;53.090;6.692;2023-07-20T12:07:20;1.35;;;1.10;;
53751;SDS011;41095;53.090;6.692;2023-07-20T12:10:02;3.35;;;1.38;;
53751;SDS011;41095;53.090;6.692;2023-07-20T12:12:38;2.08;;;0.90;;
53751;SDS011;41095;53.090;6.692;2023-07-20T12:17:59;1.90;;;1.27;;
53751;SDS011;41095;53.090;6.692;2023-07-20T12:20:32;1.08;;;0.80;;
53751;SDS011;41095;53.090;6.692;2023-07-20T12:23:09;1.23;;;1.10;;
53751;SDS011;41095;53.090;6.692;2023-07-20T12:25:45;1.40;;;1.10;;
53751;SDS011;41095;53.090;6.692;2023-07-20T12:28:12;1.70;;;1.15;;
53751;SDS011;41095;53.090;6.692;2023-07-20T12:30:43;2.38;;;1.08;;
53751;SDS011;41095;53.090;6.692;2023-07-20T12:33:09;2.00;;;1.23;;
53751;SDS011;41095;53.090;6.692;2023-07-20T12:35:37;2.20;;;1.00;;
53751;SDS011;41095;53.090;6.692;2023-07-20T12:38:02;1.50;;;1.40;;
53751;SDS011;41095;53.090;6.692;2023-07-20T12:40:28;7.13;;;2.38;;
53751;SDS011;41095;53.090;6.692;2023-07-20T12:42:55;3.55;;;1.60;;
53751;SDS011;41095;53.090;6.692;2023-07-20T12:45:22;2.92;;;1.50;;
53751;SDS011;41095;53.090;6.692;2023-07-20T12:47:47;1.85;;;1.60;;
53751;SDS011;41095;53.090;6.692;2023-07-20T12:50:13;2.30;;;1.33;;
53751;SDS011;41095;53.090;6.692;2023-07-20T12:52:39;1.85;;;1.20;;
53751;SDS011;41095;53.090;6.692;2023-07-20T12:55:06;1.70;;;1.20;;
53751;SDS011;41095;53.090;6.692;2023-07-20T12:57:36;1.52;;;1.42;;
53751;SDS011;41095;53.090;6.692;2023-07-20T13:00:03;2.22;;;1.55;;
53751;SDS011;41095;53.090;6.692;2023-07-20T13:02:30;5.05;;;1.20;;
53751;SDS011;41095;53.090;6.692;2023-07-20T13:04:57;2.00;;;1.00;;
53751;SDS011;41095;53.090;6.692;2023-07-20T13:07:37;3.28;;;1.58;;
53751;SDS011;41095;53.090;6.692;2023-07-20T13:10:04;2.15;;;1.42;;
53751;SDS011;41095;53.090;6.692;2023-07-20T13:12:31;3.67;;;1.52;;
53751;SDS011;41095;53.090;6.692;2023-07-20T13:14:57;1.63;;;1.10;;
53751;SDS011;41095;53.090;6.692;2023-07-20T13:17:26;3.15;;;1.20;;
53751;SDS011;41095;53.090;6.692;2023-07-20T13:19:52;2.72;;;0.82;;
53751;SDS011;41095;53.090;6.692;2023-07-20T13:22:17;1.40;;;1.13;;
53751;SDS011;41095;53.090;6.692;2023-07-20T13:24:44;3.63;;;1.27;;
53751;SDS011;41095;53.090;6.692;2023-07-20T13:27:17;3.65;;;1.20;;
53751;SDS011;41095;53.090;6.692;2023-07-20T13:29:43;1.13;;;0.93;;
53751;SDS011;41095;53.090;6.692;2023-07-20T13:32:10;3.83;;;1.52;;
53751;SDS011;41095;53.090;6.692;2023-07-20T13:34:46;3.10;;;1.10;;
53751;SDS011;41095;53.090;6.692;2023-07-20T13:37:11;1.48;;;1.02;;
53751;SDS011;41095;53.090;6.692;2023-07-20T13:39:38;2.95;;;1.20;;
53751;SDS011;41095;53.090;6.692;2023-07-20T13:42:06;3.38;;;1.15;;
53751;SDS011;41095;53.090;6.692;2023-07-20T13:44:34;1.08;;;0.98;;
53751;SDS011;41095;53.090;6.692;2023-07-20T13:47:00;1.52;;;1.17;;
53751;SDS011;41095;53.090;6.692;2023-07-20T13:49:26;3.15;;;1.40;;
53751;SDS011;41095;53.090;6.692;2023-07-20T13:51:52;1.30;;;1.20;;
53751;SDS011;41095;53.090;6.692;2023-07-20T13:54:18;1.95;;;1.33;;
53751;SDS011;41095;53.090;6.692;2023-07-20T13:56:43;2.58;;;1.00;;
53751;SDS011;41095;53.090;6.692;2023-07-20T13:59:09;3.22;;;1.50;;
53751;SDS011;41095;53.090;6.692;2023-07-20T14:01:35;2.10;;;1.20;;
53751;SDS011;41095;53.090;6.692;2023-07-20T14:04:01;2.63;;;1.10;;
53751;SDS011;41095;53.090;6.692;2023-07-20T14:06:30;3.28;;;1.27;;
53751;SDS011;41095;53.090;6.692;2023-07-20T14:08:57;5.20;;;0.90;;
53751;SDS011;41095;53.090;6.692;2023-07-20T14:11:24;3.28;;;1.40;;
53751;SDS011;41095;53.090;6.692;2023-07-20T14:13:50;1.85;;;1.15;;
53751;SDS011;41095;53.090;6.692;2023-07-20T14:16:18;1.58;;;1.40;;
53751;SDS011;41095;53.090;6.692;2023-07-20T14:18:43;1.65;;;1.10;;
53751;SDS011;41095;53.090;6.692;2023-07-20T14:21:12;2.92;;;1.25;;
53751;SDS011;41095;53.090;6.692;2023-07-20T14:23:38;1.60;;;1.00;;
53751;SDS011;41095;53.090;6.692;2023-07-20T14:26:03;2.53;;;1.33;;
53751;SDS011;41095;53.090;6.692;2023-07-20T14:28:35;1.83;;;0.80;;
53751;SDS011;41095;53.090;6.692;2023-07-20T14:31:01;1.48;;;1.17;;
53751;SDS011;41095;53.090;6.692;2023-07-20T14:33:27;1.55;;;1.20;;
53751;SDS011;41095;53.090;6.692;2023-07-20T14:35:52;1.65;;;1.00;;
53751;SDS011;41095;53.090;6.692;2023-07-20T14:38:18;2.83;;;1.30;;
53751;SDS011;41095;53.090;6.692;2023-07-20T14:40:44;2.40;;;1.30;;
53751;SDS011;41095;53.090;6.692;2023-07-20T14:43:10;3.63;;;1.15;;
53751;SDS011;41095;53.090;6.692;2023-07-20T14:45:36;2.88;;;1.33;;
53751;SDS011;41095;53.090;6.692;2023-07-20T14:48:05;8.52;;;1.35;;
53751;SDS011;41095;53.090;6.692;2023-07-20T14:50:31;1.63;;;1.00;;
53751;SDS011;41095;53.090;6.692;2023-07-20T14:52:57;1.42;;;1.10;;
53751;SDS011;41095;53.090;6.692;2023-07-20T14:55:22;1.23;;;1.13;;
53751;SDS011;41095;53.090;6.692;2023-07-20T14:57:48;4.65;;;1.20;;
53751;SDS011;41095;53.090;6.692;2023-07-20T15:00:14;3.22;;;1.42;;
53751;SDS011;41095;53.090;6.692;2023-07-20T15:02:40;2.83;;;1.10;;
53751;SDS011;41095;53.090;6.692;2023-07-20T15:05:06;2.40;;;1.30;;
53751;SDS011;41095;53.090;6.692;2023-07-20T15:07:33;2.28;;;0.98;;
53751;SDS011;41095;53.090;6.692;2023-07-20T15:10:00;2.25;;;1.00;;
53751;SDS011;41095;53.090;6.692;2023-07-20T15:12:26;3.42;;;2.42;;
53751;SDS011;41095;53.090;6.692;2023-07-20T15:15:05;1.83;;;1.30;;
53751;SDS011;41095;53.090;6.692;2023-07-20T15:17:32;2.78;;;1.25;;
53751;SDS011;41095;53.090;6.692;2023-07-20T15:19:58;1.67;;;1.17;;